Time;durP1;ratioP1;P1;durP2;ratioP2;P2;SDS_P1;SDS_P2;PMS_P1;PMS_P2;Temp;Humidity;BMP_temperature;BMP_pressure;BME280_temperature;BME280_humidity;BME280_pressure;Samples;Min_cycle;Max_cycle;Signal;HPM_P1;HPM_P2
2023/06/30 00:00:00;;;;;;;2.20;0.40;;;15.20;89.50;;;;;;4887017;29;20044;-83
2023/06/30 00:02:25;;;;;;;0.50;0.47;;;15.20;89.40;;;;;;4886143;29;20331;-83
2023/06/30 00:04:51;;;;;;;0.40;0.40;;;15.10;89.90;;;;;;4871396;29;20106;-83
2023/06/30 00:07:21;;;;;;;0.25;0.20;;;15.70;90.20;;;;;;4871009;29;20102;-83
2023/06/30 00:09:48;;;;;;;0.20;0.20;;;15.00;89.90;;;;;;4902236;29;20046;-83
2023/06/30 00:12:14;;;;;;;0.40;0.40;;;15.00;89.20;;;;;;4901941;29;20103;-84
2023/06/30 00:14:39;;;;;;;0.27;0.23;;;15.00;90.10;;;;;;4887094;29;20047;-83
2023/06/30 00:17:05;;;;;;;0.30;0.30;;;14.90;89.60;;;;;;4871101;29;20056;-83
2023/06/30 00:19:31;;;;;;;0.60;0.60;;;14.90;89.80;;;;;;4886242;29;20062;-83
2023/06/30 00:21:57;;;;;;;0.22;0.22;;;14.90;89.00;;;;;;4886378;29;20083;-83
2023/06/30 00:24:22;;;;;;;0.30;0.30;;;14.80;88.80;;;;;;4886073;29;20058;-83
2023/06/30 00:26:48;;;;;;;0.35;0.13;;;14.80;88.60;;;;;;4887046;29;20296;-84
2023/06/30 00:29:14;;;;;;;0.30;0.30;;;14.70;88.30;;;;;;4885293;29;20421;-84
2023/06/30 00:31:39;;;;;;;0.65;0.40;;;14.70;87.60;;;;;;4886026;29;20100;-83
2023/06/30 00:34:05;;;;;;;0.20;0.20;;;14.70;87.70;;;;;;4869882;29;20048;-83
2023/06/30 00:36:31;;;;;;;0.40;0.40;;;14.60;87.60;;;;;;4901461;29;20045;-83
2023/06/30 00:38:58;;;;;;;0.40;0.35;;;14.60;87.70;;;;;;4886080;29;20300;-84
2023/06/30 00:41:24;;;;;;;0.73;0.30;;;14.50;87.30;;;;;;4901357;29;20060;-84
2023/06/30 00:43:50;;;;;;;0.20;0.15;;;14.50;86.90;;;;;;4901541;29;20641;-83
2023/06/30 00:46:17;;;;;;;0.30;0.30;;;14.40;86.60;;;;;;4900843;29;20107;-83
2023/06/30 00:48:44;;;;;;;0.52;0.40;;;14.40;86.10;;;;;;4901134;29;20055;-84
2023/06/30 00:51:11;;;;;;;0.20;0.20;;;14.30;86.50;;;;;;4901355;29;20048;-83
2023/06/30 00:53:37;;;;;;;0.40;0.40;;;14.30;86.50;;;;;;4885248;29;20048;-83
2023/06/30 00:56:03;;;;;;;3.55;0.45;;;14.30;86.60;;;;;;4901032;29;20055;-84
2023/06/30 00:58:29;;;;;;;0.20;0.20;;;14.30;86.80;;;;;;4901046;29;20094;-84
2023/06/30 01:01:01;;;;;;;0.20;0.20;;;14.20;86.20;;;;;;4885806;29;20489;-83
2023/06/30 01:03:39;;;;;;;0.45;0.20;;;14.20;85.50;;;;;;4900944;29;20091;-84
2023/06/30 01:06:23;;;;;;;0.38;0.38;;;14.20;86.00;;;;;;4901207;29;20055;-83
2023/06/30 01:09:05;;;;;;;0.15;0.15;;;14.20;86.10;;;;;;4885664;29;20084;-83
2023/06/30 01:11:33;;;;;;;0.20;0.20;;;14.10;84.80;;;;;;4901026;29;20056;-84
2023/06/30 01:14:01;;;;;;;0.40;0.40;;;14.10;84.50;;;;;;4900983;29;20059;-83
2023/06/30 01:16:29;;;;;;;0.20;0.20;;;14.10;84.30;;;;;;4900772;29;20083;-83
2023/06/30 01:18:58;;;;;;;0.20;0.20;;;14.00;84.10;;;;;;4900606;29;20048;-83
2023/06/30 01:21:28;;;;;;;0.30;0.30;;;14.00;84.90;;;;;;4885116;29;20051;-83
2023/06/30 01:24:03;;;;;;;0.30;0.30;;;14.00;84.40;;;;;;4901115;29;20052;-83
2023/06/30 01:26:34;;;;;;;0.57;0.32;;;14.00;84.40;;;;;;4884745;29;20048;-84
2023/06/30 01:29:04;;;;;;;0.40;0.40;;;14.00;83.90;;;;;;4884530;29;20424;-83
2023/06/30 01:31:31;;;;;;;0.30;0.30;;;14.00;84.10;;;;;;4915701;29;20060;-84
2023/06/30 01:34:00;;;;;;;0.10;0.10;;;14.00;83.60;;;;;;4900560;29;20059;-83
2023/06/30 01:36:26;;;;;;;0.30;0.30;;;13.90;83.00;;;;;;4899911;29;20489;-84
2023/06/30 01:38:52;;;;;;;0.20;0.20;;;13.90;82.10;;;;;;4900619;29;20056;-84
2023/06/30 01:41:20;;;;;;;0.20;0.20;;;13.90;81.00;;;;;;4900578;29;20048;-83
2023/06/30 01:43:46;;;;;;;1.45;0.30;;;13.80;80.30;;;;;;4915688;29;20512;-83
2023/06/30 01:46:13;;;;;;;0.22;0.22;;;13.80;79.20;;;;;;4899713;29;20079;-83
2023/06/30 01:48:40;;;;;;;0.45;0.28;;;13.80;79.50;;;;;;4899695;29;20063;-83
2023/06/30 01:51:07;;;;;;;0.43;0.43;;;13.80;78.40;;;;;;4869930;29;20062;-83
2023/06/30 01:53:32;;;;;;;;;;;13.70;78.20;;;;;;4884649;29;20062;-83
2023/06/30 01:55:58;;;;;;;0.20;0.20;;;13.70;78.80;;;;;;4884448;29;19923;-83
2023/06/30 01:58:24;;;;;;;0.70;0.32;;;13.70;77.60;;;;;;4884131;29;20040;-84
2023/06/30 02:00:50;;;;;;;0.93;0.90;;;13.70;76.70;;;;;;4900163;29;20055;-83
2023/06/30 02:03:15;;;;;;;0.47;0.30;;;13.60;76.10;;;;;;4884696;29;20557;-83
2023/06/30 02:05:41;;;;;;;0.40;0.30;;;13.60;77.40;;;;;;4899449;29;20055;-83
2023/06/30 02:08:07;;;;;;;0.63;0.63;;;13.50;76.50;;;;;;4884379;29;20304;-83
2023/06/30 02:10:32;;;;;;;0.00;0.00;;;13.50;75.90;;;;;;4884212;29;20052;-83
2023/06/30 02:12:58;;;;;;;0.10;0.10;;;13.50;75.50;;;;;;4884506;29;20048;-83
2023/06/30 02:15:24;;;;;;;0.30;0.30;;;13.40;75.60;;;;;;4884176;29;20040;-86
2023/06/30 02:17:49;;;;;;;0.30;0.30;;;13.40;75.40;;;;;;4868580;29;20391;-83
2023/06/30 02:20:16;;;;;;;0.30;0.20;;;13.30;75.70;;;;;;4884400;29;20087;-83
2023/06/30 02:22:42;;;;;;;0.50;0.50;;;13.30;75.70;;;;;;4899698;29;20043;-83
2023/06/30 02:25:07;;;;;;;0.20;0.20;;;13.30;77.10;;;;;;4884076;29;20051;-83
2023/06/30 02:27:33;;;;;;;0.30;0.30;;;13.20;76.80;;;;;;4881442;29;20052;-83
2023/06/30 02:30:05;;;;;;;0.10;0.10;;;13.20;76.50;;;;;;4865753;29;20297;-83
2023/06/30 02:32:31;;;;;;;0.30;0.20;;;13.20;76.00;;;;;;4851635;29;20052;-83
2023/06/30 02:34:57;;;;;;;0.40;0.40;;;13.20;76.10;;;;;;4865478;29;20454;-83
2023/06/30 02:37:23;;;;;;;1.20;0.55;;;13.20;76.20;;;;;;4865607;29;20053;-83
2023/06/30 02:39:48;;;;;;;0.23;0.10;;;13.20;75.60;;;;;;4864821;29;20056;-83
2023/06/30 02:42:14;;;;;;;0.10;0.10;;;13.10;75.40;;;;;;4881134;29;20132;-83
2023/06/30 02:44:40;;;;;;;0.87;0.67;;;13.10;76.50;;;;;;4865184;29;20485;-83
2023/06/30 02:47:06;;;;;;;0.47;0.40;;;13.10;76.20;;;;;;4865530;29;20139;-83
2023/06/30 02:49:32;;;;;;;0.20;0.20;;;13.00;76.10;;;;;;4880647;29;20477;-83
2023/06/30 02:51:57;;;;;;;0.22;0.20;;;13.00;76.40;;;;;;4865166;29;20052;-83
2023/06/30 02:54:23;;;;;;;0.30;0.30;;;13.00;76.30;;;;;;4880805;29;20132;-83
2023/06/30 02:56:49;;;;;;;0.37;0.30;;;13.00;76.30;;;;;;4865607;29;20594;-83
2023/06/30 02:59:14;;;;;;;0.20;0.20;;;13.00;76.30;;;;;;4869304;29;20135;-83
2023/06/30 03:01:41;;;;;;;0.30;0.20;;;12.90;76.60;;;;;;4884430;29;20048;-83
2023/06/30 03:04:07;;;;;;;0.10;0.10;;;12.90;75.70;;;;;;4869060;29;20292;-83
2023/06/30 03:06:32;;;;;;;0.22;0.22;;;12.90;75.60;;;;;;4884329;29;20150;-83
2023/06/30 03:08:58;;;;;;;0.57;0.40;;;12.90;75.60;;;;;;4869284;29;20395;-83
2023/06/30 03:11:25;;;;;;;0.17;0.17;;;12.80;75.50;;;;;;4869077;29;20048;-83
2023/06/30 03:13:52;;;;;;;;;;;12.80;76.30;;;;;;4868966;29;20044;-83
2023/06/30 03:16:18;;;;;;;0.60;0.60;;;12.80;78.40;;;;;;4884048;29;20382;-84
2023/06/30 03:18:44;;;;;;;0.13;0.13;;;12.80;78.20;;;;;;4883752;29;20131;-83
2023/06/30 03:21:10;;;;;;;0.32;0.30;;;12.70;77.50;;;;;;4868801;29;20442;-83
2023/06/30 03:23:36;;;;;;;1.10;0.30;;;12.70;77.70;;;;;;4868504;29;20474;-84
2023/06/30 03:26:02;;;;;;;0.10;0.10;;;12.60;77.50;;;;;;4884248;29;20401;-84
2023/06/30 03:28:27;;;;;;;0.10;0.10;;;12.60;77.20;;;;;;4871783;29;20064;-83
2023/06/30 03:30:53;;;;;;;0.37;0.33;;;12.70;77.40;;;;;;4852902;29;20293;-83
2023/06/30 03:33:19;;;;;;;0.50;0.50;;;12.60;77.70;;;;;;4884089;29;20480;-83
2023/06/30 03:35:46;;;;;;;0.30;0.30;;;12.60;77.70;;;;;;4883330;29;20052;-83
2023/06/30 03:38:12;;;;;;;0.45;0.40;;;12.60;78.10;;;;;;4868404;29;20131;-83
2023/06/30 03:40:38;;;;;;;0.25;0.25;;;12.60;77.90;;;;;;4883444;29;20136;-84
2023/06/30 03:43:03;;;;;;;0.10;0.10;;;12.50;78.10;;;;;;4883988;29;20056;-83
2023/06/30 03:45:29;;;;;;;0.43;0.43;;;12.50;77.80;;;;;;4883635;29;20049;-83
2023/06/30 03:47:55;;;;;;;0.40;0.20;;;12.50;78.40;;;;;;4883300;29;20060;-83
2023/06/30 03:50:20;;;;;;;0.57;0.33;;;12.40;78.10;;;;;;4867955;29;20052;-83
2023/06/30 03:52:46;;;;;;;0.20;0.20;;;12.40;79.10;;;;;;4883330;29;20052;-83
2023/06/30 03:55:12;;;;;;;0.03;0.03;;;12.30;79.80;;;;;;4883468;29;20478;-83
2023/06/30 03:57:37;;;;;;;0.60;0.30;;;12.30;80.00;;;;;;4867680;29;20144;-87
2023/06/30 04:00:04;;;;;;;0.15;0.10;;;12.40;82.20;;;;;;4883634;29;20044;-83
2023/06/30 04:02:30;;;;;;;0.40;0.30;;;12.40;82.10;;;;;;4867868;29;20598;-83
2023/06/30 04:04:55;;;;;;;0.20;0.20;;;12.40;81.50;;;;;;4883215;29;20143;-83
2023/06/30 04:07:21;;;;;;;0.60;0.60;;;12.30;80.30;;;;;;4868130;29;20293;-82
2023/06/30 04:09:47;;;;;;;0.52;0.32;;;12.30;80.20;;;;;;4866764;29;20413;-83
2023/06/30 04:12:13;;;;;;;0.40;0.30;;;12.30;80.40;;;;;;4867915;29;20049;-83
2023/06/30 04:14:38;;;;;;;0.20;0.20;;;12.30;81.30;;;;;;4867793;29;20044;-86
2023/06/30 04:17:05;;;;;;;0.17;0.17;;;12.30;81.30;;;;;;4867503;29;20553;-83
2023/06/30 04:19:30;;;;;;;0.47;0.28;;;12.30;81.00;;;;;;4852813;29;20309;-83
2023/06/30 04:21:56;;;;;;;0.40;0.30;;;12.30;81.40;;;;;;4867292;29;20536;-83
2023/06/30 04:24:22;;;;;;;0.10;0.10;;;12.30;82.20;;;;;;4867852;29;20093;-83
2023/06/30 04:26:47;;;;;;;0.33;0.33;;;12.30;82.50;;;;;;4883053;29;20060;-83
2023/06/30 04:29:13;;;;;;;0.40;0.40;;;12.30;83.30;;;;;;4878109;29;20461;-83
2023/06/30 04:31:39;;;;;;;0.20;0.20;;;12.40;84.00;;;;;;4870350;29;20094;-83
2023/06/30 04:34:05;;;;;;;0.40;0.40;;;12.40;84.20;;;;;;4885633;29;20528;-82
2023/06/30 04:36:31;;;;;;;0.60;0.28;;;12.40;83.80;;;;;;4886177;29;20108;-83
2023/06/30 04:38:57;;;;;;;0.50;0.50;;;12.50;83.50;;;;;;4885775;29;20107;-83
2023/06/30 04:41:23;;;;;;;0.25;0.25;;;12.50;83.00;;;;;;4885994;29;20051;-83
2023/06/30 04:43:49;;;;;;;0.10;0.10;;;12.60;83.90;;;;;;4885262;29;20115;-83
2023/06/30 04:46:15;;;;;;;0.40;0.30;;;12.60;84.20;;;;;;4885945;29;20097;-83
2023/06/30 04:48:41;;;;;;;0.20;0.20;;;12.70;83.10;;;;;;4885571;29;20567;-83
2023/06/30 04:51:07;;;;;;;0.20;0.20;;;12.80;82.10;;;;;;4901054;29;20146;-83
2023/06/30 04:53:33;;;;;;;0.27;0.27;;;12.80;82.70;;;;;;4885892;29;20046;-83
2023/06/30 04:55:59;;;;;;;1.20;0.30;;;12.90;82.80;;;;;;4885178;29;20499;-83
2023/06/30 04:58:24;;;;;;;0.20;0.20;;;13.00;81.40;;;;;;4885751;29;20048;-83
2023/06/30 05:00:50;;;;;;;0.30;0.30;;;13.10;80.40;;;;;;4869960;29;20052;-84
2023/06/30 05:03:16;;;;;;;0.10;0.10;;;13.20;79.50;;;;;;4885645;29;20091;-83
2023/06/30 05:05:41;;;;;;;0.47;0.40;;;13.30;76.30;;;;;;4870384;29;20296;-83
2023/06/30 05:08:07;;;;;;;0.30;0.30;;;13.40;76.20;;;;;;4869876;29;20106;-83
2023/06/30 05:10:33;;;;;;;0.20;0.20;;;13.50;74.90;;;;;;4885786;29;20104;-83
2023/06/30 05:12:58;;;;;;;0.40;0.40;;;13.60;73.20;;;;;;4870002;29;20503;-83
2023/06/30 05:15:24;;;;;;;0.70;0.33;;;13.80;71.60;;;;;;4885413;29;20074;-83
2023/06/30 05:17:50;;;;;;;0.10;0.10;;;14.20;69.80;;;;;;4885190;29;20084;-83
2023/06/30 05:20:15;;;;;;;0.10;0.10;;;14.50;57.90;;;;;;4884584;29;20584;-83
2023/06/30 05:22:41;;;;;;;0.80;0.80;;;15.00;49.30;;;;;;4885388;29;20063;-83
2023/06/30 05:25:07;;;;;;;0.20;0.20;;;15.60;33.80;;;;;;4884696;29;20083;-83
2023/06/30 05:27:33;;;;;;;0.55;0.20;;;16.30;6.90;;;;;;4870029;29;20044;-83
2023/06/30 05:29:59;;;;;;;0.95;0.40;;;17.00;1.00;;;;;;4899965;29;20465;-83
2023/06/30 05:32:25;;;;;;;0.25;0.25;;;17.40;1.00;;;;;;4884887;29;20060;-83
2023/06/30 05:34:51;;;;;;;0.33;0.33;;;17.80;1.00;;;;;;4900407;29;20071;-88
2023/06/30 05:37:16;;;;;;;0.35;0.32;;;18.20;1.00;;;;;;4900605;29;20186;-83
2023/06/30 05:39:42;;;;;;;0.10;0.10;;;18.60;99.90;;;;;;4884935;29;20489;-83
2023/06/30 05:42:08;;;;;;;0.00;0.00;;;18.80;99.90;;;;;;4900155;29;20044;-83
2023/06/30 05:44:34;;;;;;;0.10;0.10;;;19.20;99.90;;;;;;4900496;29;20048;-83
2023/06/30 05:47:01;;;;;;;0.10;0.10;;;20.00;99.90;;;;;;4899978;29;20052;-84
2023/06/30 05:49:27;;;;;;;0.10;0.10;;;19.80;99.90;;;;;;4900674;29;20292;-83
2023/06/30 05:51:53;;;;;;;0.30;0.30;;;20.10;99.90;;;;;;4884555;29;20056;-86
2023/06/30 05:54:19;;;;;;;0.30;0.20;;;20.20;1.00;;;;;;4900597;29;20040;-84
2023/06/30 05:56:45;;;;;;;0.10;0.10;;;20.10;1.00;;;;;;4900351;29;20452;-83
2023/06/30 05:59:11;;;;;;;0.20;0.15;;;19.50;1.00;;;;;;4883682;29;20048;-83
2023/06/30 06:01:39;;;;;;;0.10;0.10;;;18.80;99.90;;;;;;4884702;29;20048;-83
2023/06/30 06:04:10;;;;;;;0.68;0.50;;;18.50;99.90;;;;;;4884271;29;20448;-83
2023/06/30 06:06:39;;;;;;;0.35;0.35;;;18.90;99.90;;;;;;4915977;29;20051;-83
2023/06/30 06:09:05;;;;;;;0.35;0.35;;;19.40;99.90;;;;;;4899351;29;20052;-83
2023/06/30 06:11:31;;;;;;;0.63;0.13;;;19.70;99.90;;;;;;4899784;29;20099;-83
2023/06/30 06:13:56;;;;;;;3.77;0.27;;;19.90;61.10;;;;;;4883723;29;20087;-85
2023/06/30 06:16:22;;;;;;;0.08;0.08;;;19.90;1.00;;;;;;4868528;29;20052;-83
2023/06/30 06:18:48;;;;;;;0.00;0.00;;;19.70;34.50;;;;;;4900048;29;20059;-83
2023/06/30 06:21:16;;;;;;;0.20;0.20;;;19.60;99.90;;;;;;4884253;29;20063;-82
2023/06/30 06:23:42;;;;;;;0.05;0.05;;;19.30;99.90;;;;;;4918125;29;20060;-83
2023/06/30 06:26:07;;;;;;;0.68;0.68;;;19.30;99.90;;;;;;4899197;29;20048;-83
2023/06/30 06:28:33;;;;;;;0.00;0.00;;;19.30;99.90;;;;;;4878120;29;20088;-83
2023/06/30 06:30:59;;;;;;;0.10;0.10;;;19.20;32.30;;;;;;4897151;29;20064;-83
2023/06/30 06:33:25;;;;;;;0.45;0.10;;;19.30;99.90;;;;;;4880831;29;20088;-83
2023/06/30 06:35:51;;;;;;;0.30;0.20;;;19.20;99.90;;;;;;4897594;29;20060;-82
2023/06/30 06:38:18;;;;;;;0.20;0.20;;;19.20;93.20;;;;;;4897211;29;20140;-84
2023/06/30 06:40:45;;;;;;;0.10;0.10;;;19.30;99.90;;;;;;4896703;29;20053;-84
2023/06/30 06:43:11;;;;;;;0.13;0.10;;;19.30;99.90;;;;;;4880677;29;20580;-84
2023/06/30 06:45:36;;;;;;;0.10;0.10;;;19.40;99.90;;;;;;4897619;29;20048;-84
2023/06/30 06:48:19;;;;;;;0.10;0.10;;;19.40;99.90;;;;;;4897351;29;20048;-85
2023/06/30 06:50:46;;;;;;;0.00;0.00;;;19.50;99.90;;;;;;4881137;29;20056;-82
2023/06/30 06:53:25;;;;;;;1.85;0.20;;;19.50;1.00;;;;;;4897249;29;20109;-82
2023/06/30 06:55:52;;;;;;;0.32;0.20;;;19.50;99.90;;;;;;4897320;29;20073;-82
2023/06/30 06:58:18;;;;;;;0.00;0.00;;;19.40;13.10;;;;;;4897115;29;20059;-83
2023/06/30 07:00:46;;;;;;;0.10;0.10;;;19.40;1.00;;;;;;4880750;29;20155;-82
2023/06/30 07:03:11;;;;;;;0.10;0.10;;;19.50;99.90;;;;;;4865078;29;20053;-82
2023/06/30 07:05:40;;;;;;;0.20;0.20;;;19.50;99.90;;;;;;4897280;29;20048;-85
2023/06/30 07:08:09;;;;;;;0.00;0.00;;;19.40;99.90;;;;;;4865538;29;20465;-83
2023/06/30 07:10:35;;;;;;;0.28;0.28;;;19.20;99.90;;;;;;4880802;29;20490;-82
2023/06/30 07:13:02;;;;;;;0.75;0.22;;;19.20;99.90;;;;;;4880645;29;20546;-84
2023/06/30 07:15:27;;;;;;;0.00;0.00;;;19.10;99.90;;;;;;4864425;29;20049;-84
2023/06/30 07:17:53;;;;;;;0.10;0.10;;;19.00;99.90;;;;;;4865120;29;20105;-84
2023/06/30 07:20:19;;;;;;;0.00;0.00;;;19.00;99.90;;;;;;4896788;29;20053;-83
2023/06/30 07:22:45;;;;;;;0.45;0.10;;;19.10;99.90;;;;;;4865311;29;20498;-83
2023/06/30 07:25:11;;;;;;;;;;;19.20;41.60;;;;;;4880713;29;20040;-83
2023/06/30 07:27:38;;;;;;;0.10;0.10;;;19.10;17.00;;;;;;4880821;29;19971;-84
2023/06/30 07:30:04;;;;;;;0.10;0.10;;;19.00;99.90;;;;;;4882308;29;20452;-87
2023/06/30 07:32:32;;;;;;;0.08;0.08;;;19.20;99.90;;;;;;4916078;29;20052;-84
2023/06/30 07:34:58;;;;;;;0.22;0.20;;;19.30;1.00;;;;;;4899291;29;20187;-84
2023/06/30 07:37:23;;;;;;;1.17;0.20;;;19.30;1.00;;;;;;4883426;29;20689;-83
2023/06/30 07:39:49;;;;;;;0.00;0.00;;;19.40;99.90;;;;;;4899345;29;20514;-84
2023/06/30 07:42:15;;;;;;;0.68;0.20;;;19.50;99.90;;;;;;4915674;29;20051;-81
2023/06/30 07:44:41;;;;;;;0.10;0.10;;;19.40;99.90;;;;;;4917702;29;20080;-80
2023/06/30 07:47:06;;;;;;;0.10;0.10;;;19.40;99.90;;;;;;4871603;29;20048;-84
2023/06/30 07:49:32;;;;;;;0.20;0.20;;;19.50;1.00;;;;;;4919402;29;20078;-82
2023/06/30 07:51:58;;;;;;;0.10;0.10;;;19.50;99.90;;;;;;4887093;29;20139;-81
2023/06/30 07:54:23;;;;;;;0.05;0.05;;;19.40;1.00;;;;;;4886769;29;20052;-82
2023/06/30 07:56:49;;;;;;;0.17;0.17;;;19.30;34.00;;;;;;4871298;29;20493;-82
2023/06/30 07:59:15;;;;;;;0.22;0.22;;;19.40;99.90;;;;;;4902006;29;20162;-83
2023/06/30 08:01:40;;;;;;;0.10;0.10;;;19.50;99.90;;;;;;4902269;29;20044;-85
2023/06/30 08:04:06;;;;;;;0.10;0.10;;;19.50;1.00;;;;;;4886581;29;20088;-85
2023/06/30 08:06:35;;;;;;;0.47;0.20;;;19.40;1.00;;;;;;4870410;29;20075;-87
2023/06/30 08:09:00;;;;;;;0.15;0.15;;;19.40;99.90;;;;;;4886211;29;20059;-84
2023/06/30 08:11:26;;;;;;;0.20;0.20;;;19.30;99.90;;;;;;4886356;29;20420;-85
2023/06/30 08:13:52;;;;;;;0.10;0.10;;;19.10;99.90;;;;;;4886165;29;20052;-86
2023/06/30 08:16:18;;;;;;;0.00;0.00;;;18.90;99.90;;;;;;4886066;29;20056;-85
2023/06/30 08:18:44;;;;;;;0.13;0.05;;;18.80;1.00;;;;;;4886777;29;20052;-85
2023/06/30 08:21:10;;;;;;;0.10;0.10;;;18.70;1.00;;;;;;4886238;29;20048;-87
2023/06/30 08:23:36;;;;;;;0.10;0.10;;;18.80;99.90;;;;;;4886192;29;20048;-83
2023/06/30 08:26:04;;;;;;;0.10;0.10;;;19.00;99.90;;;;;;4901717;29;20469;-84
2023/06/30 08:28:29;;;;;;;1.10;0.00;;;19.30;99.90;;;;;;4885659;29;20091;-83
2023/06/30 08:30:55;;;;;;;0.45;0.30;;;19.50;99.90;;;;;;4870757;29;20052;-83
2023/06/30 08:33:26;;;;;;;0.00;0.00;;;19.60;99.90;;;;;;4901594;29;20131;-83
2023/06/30 08:35:51;;;;;;;0.20;0.20;;;19.90;92.10;;;;;;4886029;29;20055;-83
2023/06/30 08:38:17;;;;;;;0.10;0.10;;;20.00;1.00;;;;;;4885868;29;20044;-83
2023/06/30 08:40:43;;;;;;;0.20;0.20;;;20.20;99.90;;;;;;4886215;29;20134;-83
2023/06/30 08:43:12;;;;;;;0.17;0.10;;;20.10;99.90;;;;;;4886292;29;20051;-83
2023/06/30 08:45:43;;;;;;;0.10;0.10;;;19.90;99.90;;;;;;4918086;29;20047;-83
2023/06/30 08:48:12;;;;;;;0.52;0.30;;;20.10;99.90;;;;;;4885992;29;20428;-83
2023/06/30 08:50:39;;;;;;;0.00;0.00;;;20.20;99.90;;;;;;4901177;29;20499;-83
2023/06/30 08:53:05;;;;;;;0.10;0.10;;;20.20;99.90;;;;;;4901547;29;20047;-83
2023/06/30 08:55:30;;;;;;;0.10;0.10;;;20.20;1.00;;;;;;4885196;29;20387;-83
2023/06/30 08:57:57;;;;;;;0.10;0.10;;;20.30;1.00;;;;;;4886005;29;20076;-83
2023/06/30 09:00:24;;;;;;;0.10;0.10;;;20.50;99.90;;;;;;4885223;29;20051;-82
2023/06/30 09:02:50;;;;;;;0.10;0.10;;;20.60;1.00;;;;;;4901180;29;20473;-82
2023/06/30 09:05:17;;;;;;;0.13;0.13;;;20.60;1.00;;;;;;4901069;29;20090;-85
2023/06/30 09:07:49;;;;;;;0.28;0.15;;;20.50;1.00;;;;;;4900834;29;20147;-84
2023/06/30 09:10:15;;;;;;;0.22;0.22;;;20.30;99.90;;;;;;4901044;29;20050;-86
2023/06/30 09:12:44;;;;;;;0.00;0.00;;;20.20;55.50;;;;;;4900490;29;20056;-84
2023/06/30 09:15:10;;;;;;;0.20;0.20;;;20.10;99.90;;;;;;4900578;29;20052;-83
2023/06/30 09:17:36;;;;;;;0.10;0.10;;;20.00;1.00;;;;;;4884815;29;20048;-85
2023/06/30 09:20:02;;;;;;;0.00;0.00;;;20.00;20.20;;;;;;4900759;29;20515;-84
2023/06/30 09:22:28;;;;;;;0.00;0.00;;;20.10;99.90;;;;;;4885115;29;20048;-84
2023/06/30 09:24:53;;;;;;;0.20;0.15;;;20.20;99.90;;;;;;4885388;29;20062;-85
2023/06/30 09:27:19;;;;;;;0.10;0.10;;;20.40;99.90;;;;;;4899892;29;20503;-87
2023/06/30 09:29:55;;;;;;;0.20;0.20;;;20.60;99.90;;;;;;4884369;29;20064;-83
2023/06/30 09:32:29;;;;;;;0.20;0.20;;;20.70;99.90;;;;;;4884672;29;20094;-88
2023/06/30 09:34:55;;;;;;;0.10;0.10;;;20.80;99.90;;;;;;4884915;29;20449;-83
2023/06/30 09:37:21;;;;;;;0.13;0.10;;;20.80;6.30;;;;;;4900324;29;20052;-87
2023/06/30 09:39:51;;;;;;;0.20;0.20;;;20.80;1.00;;;;;;4884859;29;20100;-83
2023/06/30 09:42:17;;;;;;;0.13;0.13;;;20.80;1.00;;;;;;4917027;29;20044;-84
2023/06/30 09:44:42;;;;;;;0.15;0.15;;;20.90;6.50;;;;;;4884471;29;20239;-84
2023/06/30 09:47:12;;;;;;;0.03;0.03;;;20.90;1.00;;;;;;4869366;29;20540;-84
2023/06/30 09:49:42;;;;;;;0.10;0.10;;;20.70;1.00;;;;;;4884755;29;20052;-84
2023/06/30 09:52:08;;;;;;;0.10;0.10;;;20.50;1.00;;;;;;4900086;29;20052;-85
2023/06/30 09:54:36;;;;;;;0.05;0.00;;;20.40;99.90;;;;;;4883861;29;20055;-83
2023/06/30 09:57:06;;;;;;;0.00;0.00;;;20.40;99.90;;;;;;4884419;29;20052;-83
2023/06/30 09:59:32;;;;;;;0.10;0.10;;;20.60;99.90;;;;;;4899697;29;20098;-83
2023/06/30 10:01:59;;;;;;;0.10;0.10;;;20.90;99.90;;;;;;4884392;29;20095;-83
2023/06/30 10:04:27;;;;;;;0.00;0.00;;;21.00;99.90;;;;;;4916365;29;20084;-88
2023/06/30 10:06:54;;;;;;;0.22;0.22;;;21.00;99.90;;;;;;4899377;29;20067;-83
2023/06/30 10:09:21;;;;;;;;;;;20.90;99.90;;;;;;4884692;29;20048;-84
2023/06/30 10:11:52;;;;;;;0.08;0.08;;;21.00;99.90;;;;;;4899334;29;20372;-84
2023/06/30 10:14:21;;;;;;;0.05;0.05;;;21.20;99.90;;;;;;4899709;29;20052;-84
2023/06/30 10:16:48;;;;;;;0.10;0.10;;;21.20;99.90;;;;;;4899387;29;20036;-83
2023/06/30 10:19:14;;;;;;;0.50;0.10;;;21.30;99.90;;;;;;4899778;29;20056;-83
2023/06/30 10:21:41;;;;;;;0.40;0.10;;;21.40;99.90;;;;;;4899196;29;20135;-83
2023/06/30 10:24:09;;;;;;;0.00;0.00;;;21.50;99.90;;;;;;4899699;29;20056;-82
2023/06/30 10:26:36;;;;;;;0.00;0.00;;;21.40;99.90;;;;;;4898863;29;20056;-82
2023/06/30 10:29:03;;;;;;;0.10;0.10;;;21.30;99.90;;;;;;4899192;29;20602;-87
2023/06/30 10:31:30;;;;;;;0.08;0.08;;;21.10;99.90;;;;;;4884125;29;20044;-88
2023/06/30 10:33:55;;;;;;;0.05;0.05;;;21.00;99.90;;;;;;4883791;29;20052;-84
2023/06/30 10:36:22;;;;;;;0.10;0.10;;;20.80;99.90;;;;;;4899577;29;20044;-83
2023/06/30 10:38:48;;;;;;;0.38;0.20;;;20.80;99.90;;;;;;4905628;29;20043;-87
2023/06/30 10:41:19;;;;;;;0.10;0.10;;;20.90;99.90;;;;;;4903435;29;20059;-86
2023/06/30 10:44:11;;;;;;;0.00;0.00;;;21.10;99.90;;;;;;4898511;29;20052;-86
2023/06/30 10:46:55;;;;;;;0.10;0.00;;;21.30;99.90;;;;;;4880727;29;20066;-84
2023/06/30 10:49:53;;;;;;;0.05;0.05;;;21.60;99.90;;;;;;4899281;29;20063;-83
2023/06/30 10:52:28;;;;;;;0.00;0.00;;;21.70;99.90;;;;;;4912280;29;20501;-83
2023/06/30 10:54:54;;;;;;;0.17;0.17;;;21.70;99.90;;;;;;4891313;29;20044;-85
2023/06/30 10:57:22;;;;;;;0.10;0.10;;;21.70;99.90;;;;;;4883886;29;20052;-85
2023/06/30 11:00:03;;;;;;;0.00;0.00;;;21.60;99.90;;;;;;4889691;29;20057;-82
2023/06/30 11:02:31;;;;;;;0.28;0.20;;;21.50;99.90;;;;;;4888868;29;20048;-83
2023/06/30 11:05:18;;;;;;;0.10;0.08;;;21.60;99.90;;;;;;4915899;29;20048;-84
2023/06/30 11:07:47;;;;;;;0.13;0.13;;;21.70;99.90;;;;;;4883722;29;20143;-85
2023/06/30 11:10:24;;;;;;;0.00;0.00;;;21.60;99.90;;;;;;4883842;29;20071;-85
2023/06/30 11:12:52;;;;;;;0.20;0.20;;;21.70;99.90;;;;;;4898996;29;20055;-84
2023/06/30 11:15:43;;;;;;;0.10;0.10;;;21.80;99.90;;;;;;4899158;29;20496;-86
2023/06/30 11:18:18;;;;;;;0.10;0.10;;;21.90;99.90;;;;;;4884096;29;20476;-85
2023/06/30 11:21:00;;;;;;;0.93;0.10;;;21.90;99.90;;;;;;4902861;29;20404;-84
2023/06/30 11:23:52;;;;;;;0.13;0.10;;;22.10;99.90;;;;;;4902316;29;20059;-83
2023/06/30 11:26:18;;;;;;;0.10;0.10;;;22.20;99.90;;;;;;4899379;29;20509;-83
2023/06/30 11:28:48;;;;;;;0.13;0.13;;;22.10;99.90;;;;;;4903034;29;20067;-82
2023/06/30 11:31:15;;;;;;;0.10;0.10;;;22.20;99.90;;;;;;4886877;29;20419;-85
2023/06/30 11:33:42;;;;;;;0.10;0.10;;;22.30;99.90;;;;;;4902262;29;20397;-85
2023/06/30 11:36:16;;;;;;;0.10;0.10;;;22.30;99.90;;;;;;4918367;29;20510;-86
2023/06/30 11:38:49;;;;;;;0.10;0.10;;;22.40;99.90;;;;;;4901978;29;20044;-84
2023/06/30 11:41:22;;;;;;;0.10;0.10;;;22.30;99.90;;;;;;4902575;29;20044;-85
2023/06/30 11:43:58;;;;;;;0.40;0.40;;;22.30;99.90;;;;;;4886630;29;20080;-87
2023/06/30 11:46:23;;;;;;;0.10;0.10;;;22.30;99.90;;;;;;4902312;29;20060;-88
2023/06/30 11:48:50;;;;;;;0.00;0.00;;;22.20;99.90;;;;;;4901751;29;20519;-86
2023/06/30 11:51:17;;;;;;;0.40;0.10;;;22.20;99.90;;;;;;4902405;29;20060;-83
2023/06/30 11:53:45;;;;;;;0.20;0.20;;;22.30;99.90;;;;;;4918039;29;20083;-85
2023/06/30 11:56:11;;;;;;;0.22;0.10;;;22.30;99.90;;;;;;4902745;29;20083;-84
2023/06/30 11:58:37;;;;;;;0.08;0.08;;;22.40;99.90;;;;;;4886796;29;20079;-84
2023/06/30 12:01:04;;;;;;;0.25;0.25;;;22.50;99.90;;;;;;4886482;29;20047;-84
2023/06/30 12:03:29;;;;;;;0.32;0.20;;;22.60;99.90;;;;;;4918911;29;20539;-88
2023/06/30 12:05:57;;;;;;;0.40;0.10;;;22.70;99.90;;;;;;4918752;29;20107;-91
2023/06/30 12:08:26;;;;;;;0.10;0.10;;;22.60;99.90;;;;;;4917991;29;20489;-83
2023/06/30 12:10:51;;;;;;;0.17;0.17;;;22.50;99.90;;;;;;4886231;29;20112;-84
2023/06/30 12:13:17;;;;;;;0.10;0.10;;;22.30;99.90;;;;;;4886823;29;20044;-84
2023/06/30 12:15:43;;;;;;;0.10;0.10;;;22.20;99.90;;;;;;4918931;29;20050;-89
2023/06/30 12:18:09;;;;;;;0.13;0.13;;;22.10;99.90;;;;;;4901583;29;20044;-85
2023/06/30 12:20:40;;;;;;;0.10;0.10;;;22.20;99.90;;;;;;4901926;29;20076;-84
2023/06/30 12:23:06;;;;;;;0.00;0.00;;;22.30;99.90;;;;;;4901663;29;20072;-86
2023/06/30 12:25:36;;;;;;;0.10;0.10;;;22.40;99.90;;;;;;4901721;29;20078;-85
2023/06/30 12:28:05;;;;;;;0.40;0.30;;;22.40;99.90;;;;;;4901048;29;20055;-83
2023/06/30 12:30:31;;;;;;;0.10;0.10;;;22.30;99.90;;;;;;4901047;29;20060;-83
2023/06/30 12:32:59;;;;;;;0.00;0.00;;;22.30;99.90;;;;;;4901376;29;20048;-82
2023/06/30 12:35:29;;;;;;;0.28;0.28;;;22.40;99.90;;;;;;4917443;29;20047;-86
2023/06/30 12:37:54;;;;;;;0.10;0.10;;;22.40;99.10;;;;;;4901308;29;20048;-86
2023/06/30 12:40:22;;;;;;;0.38;0.30;;;22.50;99.90;;;;;;4901507;29;20104;-86
2023/06/30 12:42:48;;;;;;;0.13;0.10;;;22.50;99.90;;;;;;4901247;29;20087;-87
2023/06/30 12:45:15;;;;;;;0.10;0.10;;;22.30;99.90;;;;;;4901605;29;20090;-86
2023/06/30 12:47:40;;;;;;;0.10;0.10;;;22.20;99.90;;;;;;4901265;29;20174;-89